Terminal Aerodrome Forecast
Issued by NWS Cleveland, OH

Home | Current Version | Previous Version | Graphics & Text | Print | Product List | Glossary On
Versions: 1 2 3 4 5 6 7 8 9 10 11 12 13 14 15 16 17
000
FTUS41 KCLE 250900 AAB
TAFERI
TAF AMD
KERI 250914Z 2509/2606 23018G28KT P6SM OVC025
      TEMPO 2511/2514 6SM -RASN
     FM251900 22015G25KT P6SM OVC025
     FM260000 20008KT P6SM BKN025=

USA.gov is the U.S. government's official web portal to all federal, state and local government web resources and services.